• Join FlightAware (Why Join?)
  • Login
  • US Flag 
09:01PM EST


 

Airport Tracker/Info


-or-


 

Live Flight TrackerFlight Track Log ✈ N2876Q ✈ 06-Jan-2013 ✈ KFYE

Flight Track Log - Related Links

Times and Time Zones

All times are in EST time to prevent confusion due to time zone crossing. See the N2876Q flight status page for this flight to view local times or setup timezone preferences in your user account.

Time Position Orientation Groundspeed Altitude Reporting Facility
EST Latitude Longitude Course Direction KTS MPH feet Rate Location/Type
09:32PM 36.8167 -89.5536 120° Southeast 123 142 5,500  Level Memphis Center
09:33PM 36.7853 -89.5408 162° South 123 142 5,400 -60 Descending Memphis Center
09:34PM 36.7539 -89.5206 153° Southeast 123 142 5,400  Level Memphis Center
09:35PM 36.7228 -89.5131 169° South 123 142 5,400  Level Memphis Center
09:36PM 36.6894 -89.5083 174° South 123 142 5,400  Level Memphis Center
09:37PM -19.8741 -160.2296 120° Southeast  Level Estimated
09:37PM 36.6561 -89.5136 187° South 123 142 5,500  Level Memphis Center
09:38PM 36.6228 -89.5244 195° South 123 142 5,500  Level Memphis Center
09:39PM 36.5917 -89.5428 205° Southwest 123 142 5,600  Climbing Memphis Center
09:40PM 36.5583 -89.5586 201° Southwest 128 147 5,600  Level Memphis Center
09:41PM 36.5250 -89.5694 195° South 128 147 5,600 -60 Level Memphis Center
09:42PM 36.4897 -89.5697 180° South 128 147 5,500 -60 Descending Memphis Center
09:43PM 36.4542 -89.5675 177° South 123 142 5,500  Level Memphis Center
09:44PM 36.4208 -89.5678 180° South 123 142 5,500 -60 Level Memphis Center
09:45PM 36.3875 -89.5603 170° South 123 142 5,400 -120 Descending Memphis Center
09:46PM 36.3581 -89.5478 161° South 123 142 5,300 -60 Descending Memphis Center
09:47PM 36.3289 -89.5325 157° South 123 142 5,300  Level Memphis Center
09:48PM 36.2997 -89.5200 161° South 123 142 5,300  Level Memphis Center
09:49PM 36.2703 -89.5050 158° South 123 142 5,400  Climbing Memphis Center
09:50PM 36.2431 -89.4922 159° South 112 129 5,400  Level Memphis Center
09:51PM 36.2139 -89.4797 161° South 112 129 5,500  Climbing Memphis Center
09:52PM 36.1825 -89.4697 166° South 112 129 5,500  Level Memphis Center
09:53PM 36.1469 -89.4703 181° South 119 137 5,600  Climbing Memphis Center
09:54PM 36.1117 -89.4681 177° South 124 143 5,600  Level Memphis Center
09:55PM 36.0761 -89.4633 174° South 124 143 5,600  Level Memphis Center
09:56PM 36.0406 -89.4661 184° South 129 148 5,600 -60 Level Memphis Center
09:57PM 36.0031 -89.4692 184° South 129 148 5,500 -120 Descending Memphis Center
09:58PM 35.9678 -89.4772 190° South 129 148 5,400 -120 Descending Memphis Center
09:59PM 35.9325 -89.4828 187° South 134 154 5,300 -120 Descending Memphis Center
10:00PM 35.8969 -89.4908 190° South 134 154 5,200 -60 Descending Memphis Center
10:01PM 35.8636 -89.4989 191° South 129 148 5,200  Level Memphis Center
10:02PM 35.8325 -89.5019 185° South 122 140 5,300  Climbing Memphis Center
10:03PM 35.7989 -89.4969 173° South 122 140 5,300  Level Memphis Center
10:04PM 35.7678 -89.4872 166° South 122 140 5,300  Level Memphis Center
10:05PM 35.7364 -89.4797 169° South 122 140 5,300 -60 Level Memphis Center
10:06PM 35.7031 -89.4750 173° South 122 140 5,200 -60 Descending Memphis Center
10:07PM 35.6778 -89.4728 176° South 115 132 5,200  Level Memphis Center
10:08PM 35.6425 -89.4731 180° South 115 132 5,200  Level Memphis Center
10:09PM 35.6092 -89.4708 177° South 115 132 5,200  Level Memphis Center
10:10PM 35.5756 -89.4714 181° South 122 140 5,200  Level Memphis Center
10:11PM 35.5422 -89.4742 184° South 122 140 5,300  Climbing Memphis Center
10:12PM 35.5111 -89.4769 184° South 122 140 5,200 -180 Descending Memphis Center
10:13PM 35.4756 -89.4750 177° South 122 140 5,000 -360 Descending Memphis Center
10:14PM 35.4422 -89.4728 177° South 122 140 4,500 -600 Descending Memphis Center
10:15PM 35.4150 -89.4653 167° South 110 127 3,900 -780 Descending Memphis Center
10:16PM 35.3919 -89.4606 171° South 99 114 3,000 -840 Descending Memphis Center
10:17PM 35.3733 -89.4506 156° South 93 107 2,300 -900 Descending Memphis Center
10:18PM 35.3689 -89.4328 107° East 70 81 1,300 -360 Descending Memphis Center
10:20PM 35.3833 -89.4333 358° North 79 91 1,200 -60 Descending KMEM
10:22PM 35.3833 -89.4333 321° Northwest 79 91 1,200  Level KMEM
10:24PM 35.3833 -89.4333 321° Northwest 79 91 1,200  Level KMEM
10:26PM 35.3833 -89.4333 321° Northwest 79 91 1,200  Level KMEM
10:28PM 35.3833 -89.4333 321° Northwest 79 91 1,200  Level KMEM
10:30PM 35.3833 -89.4333 321° Northwest 79 91 1,200  Level KMEM
10:32PM 35.3833 -89.4333 321° Northwest 79 91 1,200  Level KMEM
10:34PM 35.3833 -89.4333 321° Northwest 79 91 1,200  Level KMEM
10:36PM 35.3833 -89.4333 321° Northwest 79 91 1,200  Level KMEM
10:38PM 35.3833 -89.4333 321° Northwest 79 91 1,200  Level KMEM
10:40PM 35.3833 -89.4333 321° Northwest 79 91 1,200  Level KMEM
10:42PM 35.3833 -89.4333 321° Northwest 79 91 1,200  Level KMEM
10:44PM 35.3833 -89.4333 321° Northwest 79 91 1,200  Level KMEM
10:46PM 35.3833 -89.4333 321° Northwest 79 91 1,200  Level KMEM
10:48PM 35.3833 -89.4333 321° Northwest 79 91 1,200  Level KMEM
10:50PM 35.3833 -89.4333 321° Northwest 79 91 1,200  Level KMEM
10:52PM 35.3833 -89.4333 321° Northwest 79 91 1,200  Level KMEM
10:54PM 35.3833 -89.4333 321° Northwest 79 91 1,200  Level KMEM
10:56PM 35.3833 -89.4333 321° Northwest 79 91 1,200  Level KMEM
10:58PM 35.3833 -89.4333 321° Northwest 79 91 1,200  Level KMEM
11:00PM 35.3833 -89.4333 321° Northwest 79 91 1,200  Level KMEM
11:02PM 35.3833 -89.4333 321° Northwest 79 91 1,200  Level KMEM
11:04PM 35.3833 -89.4333 321° Northwest 79 91 1,200  Level KMEM
11:06PM 35.3833 -89.4333 321° Northwest 79 91 1,200  Level KMEM
11:08PM 35.3833 -89.4333 321° Northwest 79 91 1,200  Level KMEM
11:10PM 35.3833 -89.4333 321° Northwest 79 91 1,200  Level KMEM
11:12PM 35.3833 -89.4333 321° Northwest 79 91 1,200  Level KMEM
11:14PM 35.3833 -89.4333 321° Northwest 79 91 1,200  Level KMEM
11:16PM 35.3833 -89.4333 321° Northwest 79 91 1,200  Level KMEM
11:18PM 35.3833 -89.4333 321° Northwest 79 91 1,200  Level KMEM
11:20PM 35.3833 -89.4333 321° Northwest 79 91 1,200  Level KMEM
11:22PM 35.3833 -89.4333 321° Northwest 79 91 1,200  Level KMEM
11:24PM 35.3833 -89.4333 321° Northwest 79 91 1,200  Level KMEM
11:26PM 35.3833 -89.4333 321° Northwest 79 91 1,200  Level KMEM
11:28PM 35.3833 -89.4333 321° Northwest 79 91 1,200  Level KMEM
11:30PM 35.3833 -89.4333 321° Northwest 79 91 1,200  Level KMEM
11:32PM 35.3833 -89.4333 321° Northwest 79 91 1,200  Level KMEM
11:34PM 35.3833 -89.4333 321° Northwest 79 91 1,200  Level KMEM
11:36PM 35.3833 -89.4333 321° Northwest 79 91 1,200  Level KMEM
11:38PM 35.3833 -89.4333 321° Northwest 79 91 1,200  Level KMEM
11:40PM 35.3833 -89.4333 321° Northwest 79 91 1,200  Level KMEM
11:42PM 35.3833 -89.4333 321° Northwest 79 91 1,200  Level KMEM
11:44PM 35.3833 -89.4333 321° Northwest 79 91 1,200  Level KMEM
11:46PM 35.3833 -89.4333 321° Northwest 79 91 1,200  Level KMEM
11:48PM 35.3833 -89.4333 321° Northwest 79 91 1,200  Level KMEM
11:50PM 35.3833 -89.4333 321° Northwest 79 91 1,200  Level KMEM
11:52PM 35.3352 -89.4196 167° South  Level FlightAware Approximate